createdAt,value
2023-01-18T00:01:09.000Z,43.2
2023-01-18T00:02:24.000Z,46.1
2023-01-18T00:03:40.000Z,54.9
2023-01-18T00:04:56.000Z,48.8
2023-01-18T00:06:12.000Z,32.2
2023-01-18T00:07:28.000Z,48.1
2023-01-18T00:08:44.000Z,52.3
2023-01-18T00:10:01.000Z,40.7
2023-01-18T00:11:17.000Z,53.6
2023-01-18T00:12:33.000Z,57.8
2023-01-18T00:13:49.000Z,52.5
2023-01-18T00:15:06.000Z,43.3
2023-01-18T00:16:22.000Z,42.8
2023-01-18T00:17:38.000Z,40.9
2023-01-18T00:18:54.000Z,52.1
2023-01-18T00:20:10.000Z,61.7
2023-01-18T00:21:26.000Z,47.6
2023-01-18T00:22:42.000Z,57.9
2023-01-18T00:23:58.000Z,53.8
2023-01-18T00:25:15.000Z,54
2023-01-18T00:26:31.000Z,45
2023-01-18T00:27:47.000Z,70.7
2023-01-18T00:29:02.000Z,55.6
2023-01-18T00:30:18.000Z,49.4
2023-01-18T00:31:33.000Z,50.2
2023-01-18T00:32:48.000Z,46.9
2023-01-18T00:34:04.000Z,53.7
2023-01-18T00:35:20.000Z,57
2023-01-18T00:36:35.000Z,50.1
2023-01-18T00:37:51.000Z,60.4
2023-01-18T00:39:07.000Z,50.7
2023-01-18T00:40:23.000Z,56.2
2023-01-18T00:41:40.000Z,46.4
2023-01-18T00:42:56.000Z,42.9
2023-01-18T00:44:12.000Z,49
2023-01-18T00:45:28.000Z,46.7
2023-01-18T00:46:45.000Z,39.2
2023-01-18T00:48:01.000Z,39.3
2023-01-18T00:49:17.000Z,40.3
2023-01-18T00:50:33.000Z,43.7
2023-01-18T00:51:50.000Z,41
2023-01-18T00:53:05.000Z,36.6
2023-01-18T00:54:21.000Z,32.4
2023-01-18T00:55:37.000Z,36.6
2023-01-18T00:56:54.000Z,38.7
2023-01-18T00:58:10.000Z,27.2
2023-01-18T00:59:26.000Z,38.3
2023-01-18T01:00:42.000Z,47.1
2023-01-18T01:01:58.000Z,28.6
2023-01-18T01:03:13.000Z,41
2023-01-18T01:04:28.000Z,34.5
2023-01-18T01:05:43.000Z,29.6
2023-01-18T01:07:00.000Z,36.5
2023-01-18T01:08:16.000Z,41.3
2023-01-18T01:09:32.000Z,37.5
2023-01-18T01:10:48.000Z,41.2
2023-01-18T01:12:04.000Z,38.7
2023-01-18T01:13:21.000Z,41.7
2023-01-18T01:14:37.000Z,42
2023-01-18T01:15:53.000Z,36.3
2023-01-18T01:17:09.000Z,34.2
2023-01-18T01:18:26.000Z,31.1
2023-01-18T01:19:42.000Z,38.7
2023-01-18T01:20:58.000Z,36.6
2023-01-18T01:22:13.000Z,34.9
2023-01-18T01:23:30.000Z,40.2
2023-01-18T01:24:46.000Z,42.5
2023-01-18T01:26:02.000Z,36
2023-01-18T01:27:18.000Z,35.9
2023-01-18T01:28:35.000Z,28.4
2023-01-18T01:29:51.000Z,34.7
2023-01-18T01:31:07.000Z,38.2
2023-01-18T01:32:23.000Z,36.8
2023-01-18T01:33:39.000Z,35.7
2023-01-18T01:34:56.000Z,40.4
2023-01-18T01:36:12.000Z,37.6
2023-01-18T01:37:28.000Z,26.8
2023-01-18T01:38:43.000Z,38.5
2023-01-18T01:40:00.000Z,33
2023-01-18T01:41:16.000Z,42.1
2023-01-18T01:42:32.000Z,27.5
2023-01-18T01:43:48.000Z,35.7
2023-01-18T01:45:05.000Z,29.2
2023-01-18T01:46:21.000Z,29.4
2023-01-18T01:47:37.000Z,29.3
2023-01-18T01:48:53.000Z,36.6
2023-01-18T01:50:10.000Z,32.3
2023-01-18T01:51:26.000Z,29.4
2023-01-18T01:52:41.000Z,34.6
2023-01-18T01:53:56.000Z,27.5
2023-01-18T01:55:12.000Z,24.2
2023-01-18T01:56:27.000Z,29
2023-01-18T01:57:43.000Z,27.6
2023-01-18T01:58:59.000Z,25.6
2023-01-18T02:00:16.000Z,36.3
2023-01-18T02:01:32.000Z,24.2
2023-01-18T02:02:48.000Z,35.5
2023-01-18T02:04:04.000Z,36.2
2023-01-18T02:05:20.000Z,29.5
2023-01-18T02:06:36.000Z,31.2
2023-01-18T02:07:52.000Z,31.9
2023-01-18T02:09:08.000Z,31.4
2023-01-18T02:10:24.000Z,31.4
2023-01-18T02:11:41.000Z,28.4
2023-01-18T02:12:57.000Z,22.7
2023-01-18T02:14:13.000Z,27.6
2023-01-18T02:15:29.000Z,21.1
2023-01-18T02:16:46.000Z,29.3
2023-01-18T02:18:02.000Z,30.2
2023-01-18T02:19:18.000Z,33.9
2023-01-18T02:20:34.000Z,23.4
2023-01-18T02:21:50.000Z,35.8
2023-01-18T02:23:05.000Z,25.6
2023-01-18T02:24:21.000Z,30.4
2023-01-18T02:25:36.000Z,30.7
2023-01-18T02:26:52.000Z,28.4
2023-01-18T02:28:08.000Z,34
2023-01-18T02:29:24.000Z,27.1
2023-01-18T02:30:40.000Z,27.4
2023-01-18T02:31:56.000Z,30.2
2023-01-18T02:33:13.000Z,31.2
2023-01-18T02:34:29.000Z,36.9
2023-01-18T02:35:45.000Z,27.8
2023-01-18T02:37:01.000Z,28.3
2023-01-18T02:38:18.000Z,28.9
2023-01-18T02:39:34.000Z,32.9
2023-01-18T02:40:50.000Z,37.6
2023-01-18T02:42:06.000Z,26.5
2023-01-18T02:43:22.000Z,28.4
2023-01-18T02:44:38.000Z,35.8
2023-01-18T02:45:54.000Z,35.4
2023-01-18T02:47:10.000Z,28.1
2023-01-18T02:48:27.000Z,23.5
2023-01-18T02:49:43.000Z,29.2
2023-01-18T02:50:59.000Z,21.2
2023-01-18T02:52:15.000Z,20
2023-01-18T02:53:32.000Z,30.2
2023-01-18T02:54:48.000Z,26.3
2023-01-18T02:56:04.000Z,29.6
2023-01-18T02:57:20.000Z,32.4
2023-01-18T02:58:36.000Z,29.2
2023-01-18T02:59:52.000Z,28.1
2023-01-18T03:01:08.000Z,21.6
2023-01-18T03:02:24.000Z,30.9
2023-01-18T03:03:40.000Z,24
2023-01-18T03:04:57.000Z,23.3
2023-01-18T03:06:13.000Z,22
2023-01-18T03:07:29.000Z,34.1
2023-01-18T03:08:44.000Z,21.1
2023-01-18T03:10:00.000Z,26.6
2023-01-18T03:11:15.000Z,24.8
2023-01-18T03:12:30.000Z,24.7
2023-01-18T03:13:46.000Z,24.6
2023-01-18T03:15:03.000Z,26.6
2023-01-18T03:16:19.000Z,27.1
2023-01-18T03:17:35.000Z,21.1
2023-01-18T03:18:51.000Z,25.1
2023-01-18T03:20:08.000Z,25.7
2023-01-18T03:21:24.000Z,31.5
2023-01-18T03:22:40.000Z,27.2
2023-01-18T03:23:56.000Z,24.6
2023-01-18T03:25:12.000Z,29.5
2023-01-18T03:26:29.000Z,23.1
2023-01-18T03:27:45.000Z,30
2023-01-18T03:29:00.000Z,22.2
2023-01-18T03:30:16.000Z,30.9
2023-01-18T03:31:33.000Z,25.9
2023-01-18T03:32:49.000Z,26.5
2023-01-18T03:34:05.000Z,23.7
2023-01-18T03:35:21.000Z,26.4
2023-01-18T03:36:38.000Z,29
2023-01-18T03:37:53.000Z,26.5
2023-01-18T03:39:08.000Z,21.2
2023-01-18T03:40:24.000Z,27.4
2023-01-18T03:41:41.000Z,31.8
2023-01-18T03:42:57.000Z,32
2023-01-18T03:44:13.000Z,21.1
2023-01-18T03:45:29.000Z,29.7
2023-01-18T03:46:46.000Z,20.7
2023-01-18T03:48:02.000Z,27.4
2023-01-18T03:49:18.000Z,27.3
2023-01-18T03:50:34.000Z,22.5
2023-01-18T03:51:50.000Z,29.8
2023-01-18T03:53:07.000Z,30.6
2023-01-18T03:54:23.000Z,28.8
2023-01-18T03:55:38.000Z,25.8
2023-01-18T03:56:54.000Z,27
2023-01-18T03:58:11.000Z,27.3
2023-01-18T03:59:27.000Z,26
2023-01-18T04:00:43.000Z,30.9
2023-01-18T04:01:59.000Z,30.6
2023-01-18T04:03:16.000Z,32.8
2023-01-18T04:04:31.000Z,29.8
2023-01-18T04:05:46.000Z,29.2
2023-01-18T04:07:01.000Z,29.1
2023-01-18T04:08:17.000Z,31.3
2023-01-18T04:09:33.000Z,30.1
2023-01-18T04:10:49.000Z,28.7
2023-01-18T04:12:04.000Z,26.7
2023-01-18T04:13:20.000Z,24.6
2023-01-18T04:14:36.000Z,22.9
2023-01-18T04:15:52.000Z,25.9
2023-01-18T04:17:08.000Z,23
2023-01-18T04:18:25.000Z,27.8
2023-01-18T04:19:41.000Z,21.2
2023-01-18T04:20:57.000Z,20.6
2023-01-18T04:22:13.000Z,20
2023-01-18T04:23:30.000Z,25.7
2023-01-18T04:24:46.000Z,23.7
2023-01-18T04:26:02.000Z,23.8
2023-01-18T04:27:18.000Z,20.1
2023-01-18T04:28:34.000Z,25.5
2023-01-18T04:29:50.000Z,31.2
2023-01-18T04:31:06.000Z,27.1
2023-01-18T04:32:22.000Z,28.2
2023-01-18T04:33:38.000Z,22.6
2023-01-18T04:34:55.000Z,22.1
2023-01-18T04:36:11.000Z,23.7
2023-01-18T04:37:27.000Z,21.5
2023-01-18T04:38:42.000Z,20.7
2023-01-18T04:39:58.000Z,21.5
2023-01-18T04:41:14.000Z,23
2023-01-18T04:42:29.000Z,23.7
2023-01-18T04:43:44.000Z,26.6
2023-01-18T04:45:01.000Z,33.4
2023-01-18T04:46:17.000Z,24.9
2023-01-18T04:47:33.000Z,22.7
2023-01-18T04:48:49.000Z,25.2
2023-01-18T04:50:06.000Z,21.1
2023-01-18T04:51:22.000Z,21.6
2023-01-18T04:52:38.000Z,24.1
2023-01-18T04:53:54.000Z,32.9
2023-01-18T04:55:10.000Z,23.7
2023-01-18T04:56:27.000Z,29.6
2023-01-18T04:57:43.000Z,21.4
2023-01-18T04:58:59.000Z,28.8
2023-01-18T05:00:14.000Z,25.3
2023-01-18T05:01:31.000Z,25.2
2023-01-18T05:02:47.000Z,29.8
2023-01-18T05:04:03.000Z,30.9
2023-01-18T05:05:19.000Z,21.4
2023-01-18T05:06:36.000Z,25.3
2023-01-18T05:07:52.000Z,25.2
2023-01-18T05:09:07.000Z,31.4
2023-01-18T05:10:22.000Z,22.5
2023-01-18T05:11:39.000Z,25.6
2023-01-18T05:12:55.000Z,26.3
2023-01-18T05:14:10.000Z,24
2023-01-18T05:15:25.000Z,28.7
2023-01-18T05:16:42.000Z,34.8
2023-01-18T05:17:58.000Z,29.5
2023-01-18T05:19:14.000Z,28.2
2023-01-18T05:20:30.000Z,23.5
2023-01-18T05:21:47.000Z,26.1
2023-01-18T05:23:03.000Z,24.6
2023-01-18T05:24:19.000Z,23.7
2023-01-18T05:25:35.000Z,23.9
2023-01-18T05:26:51.000Z,35.1
2023-01-18T05:28:08.000Z,27
2023-01-18T05:29:24.000Z,21.3
2023-01-18T05:30:40.000Z,25.9
2023-01-18T05:31:55.000Z,22
2023-01-18T05:33:12.000Z,20.4
2023-01-18T05:34:28.000Z,27.3
2023-01-18T05:35:44.000Z,23.8
2023-01-18T05:37:00.000Z,25.5
2023-01-18T05:38:17.000Z,24.2
2023-01-18T05:39:33.000Z,30.9
2023-01-18T05:40:48.000Z,23.3
2023-01-18T05:42:03.000Z,22.3
2023-01-18T05:43:19.000Z,21.6
2023-01-18T05:44:34.000Z,24.1
2023-01-18T05:45:50.000Z,21
2023-01-18T05:47:06.000Z,26.2
2023-01-18T05:48:23.000Z,24.5
2023-01-18T05:49:39.000Z,27.7
2023-01-18T05:50:55.000Z,20.8
2023-01-18T05:52:11.000Z,24.5
2023-01-18T05:53:28.000Z,23.1
2023-01-18T05:54:44.000Z,22.1
2023-01-18T05:56:00.000Z,24.3
2023-01-18T05:57:16.000Z,24.5
2023-01-18T05:58:32.000Z,25.3
2023-01-18T05:59:49.000Z,29.6
2023-01-18T06:01:04.000Z,27
2023-01-18T06:02:20.000Z,27.5
2023-01-18T06:03:36.000Z,24.4
2023-01-18T06:04:53.000Z,21.3
2023-01-18T06:06:09.000Z,27.9
2023-01-18T06:07:25.000Z,27.2
2023-01-18T06:08:41.000Z,31.8
2023-01-18T06:09:57.000Z,30.1
2023-01-18T06:11:12.000Z,25.6
2023-01-18T06:12:28.000Z,32.1
2023-01-18T06:13:43.000Z,27.9
2023-01-18T06:14:59.000Z,27.6
2023-01-18T06:16:15.000Z,28.5
2023-01-18T06:17:31.000Z,28.7
2023-01-18T06:18:47.000Z,34
2023-01-18T06:20:04.000Z,28
2023-01-18T06:21:19.000Z,31.8
2023-01-18T06:22:35.000Z,26.2
2023-01-18T06:23:51.000Z,29
2023-01-18T06:25:08.000Z,29.7
2023-01-18T06:26:24.000Z,32.8
2023-01-18T06:27:40.000Z,26.1
2023-01-18T06:28:56.000Z,25.9
2023-01-18T06:30:12.000Z,25.1
2023-01-18T06:31:29.000Z,26.7
2023-01-18T06:32:45.000Z,25.8
2023-01-18T06:34:01.000Z,29.5
2023-01-18T06:35:17.000Z,27.7
2023-01-18T06:36:34.000Z,26
2023-01-18T06:37:49.000Z,29.6
2023-01-18T06:39:05.000Z,23
2023-01-18T06:40:20.000Z,23.9
2023-01-18T06:41:36.000Z,28.1
2023-01-18T06:42:52.000Z,30.2
2023-01-18T06:44:07.000Z,22.4
2023-01-18T06:45:22.000Z,25.2
2023-01-18T06:46:39.000Z,31.4
2023-01-18T06:47:55.000Z,18.1
2023-01-18T06:49:11.000Z,30.6
2023-01-18T06:50:27.000Z,23.3
2023-01-18T06:51:44.000Z,20.9
2023-01-18T06:53:00.000Z,25.6
2023-01-18T06:54:16.000Z,27
2023-01-18T06:55:32.000Z,22.9
2023-01-18T06:56:49.000Z,24.1
2023-01-18T06:58:05.000Z,25.5
2023-01-18T06:59:21.000Z,21.7
2023-01-18T07:00:37.000Z,20.3
2023-01-18T07:01:52.000Z,21.8
2023-01-18T07:03:09.000Z,28.5
2023-01-18T07:04:25.000Z,22.1
2023-01-18T07:05:41.000Z,23.9
2023-01-18T07:06:57.000Z,28
2023-01-18T07:08:14.000Z,24.8
2023-01-18T07:09:30.000Z,32.9
2023-01-18T07:10:45.000Z,22.7
2023-01-18T07:12:00.000Z,34.3
2023-01-18T07:13:17.000Z,33.9
2023-01-18T07:14:32.000Z,24.2
2023-01-18T07:15:47.000Z,26.6
2023-01-18T07:17:03.000Z,27.6
2023-01-18T07:18:20.000Z,30
2023-01-18T07:19:36.000Z,29.8
2023-01-18T07:20:52.000Z,27.2
2023-01-18T07:22:08.000Z,20.2
2023-01-18T07:23:25.000Z,27.5
2023-01-18T07:24:41.000Z,22.2
2023-01-18T07:27:13.000Z,24.3
2023-01-18T07:28:29.000Z,24.5
2023-01-18T07:29:46.000Z,26.5
2023-01-18T07:31:02.000Z,29.2
2023-01-18T07:32:17.000Z,23
2023-01-18T07:33:33.000Z,26.6
2023-01-18T07:34:50.000Z,22.6
2023-01-18T07:36:06.000Z,30.9
2023-01-18T07:37:22.000Z,29.6
2023-01-18T07:38:38.000Z,24.3
2023-01-18T07:39:55.000Z,17.5
2023-01-18T07:41:11.000Z,24.2
2023-01-18T07:42:26.000Z,27
2023-01-18T07:43:41.000Z,23.9
2023-01-18T07:44:58.000Z,21.1
2023-01-18T07:46:13.000Z,23.8
2023-01-18T07:47:28.000Z,29.1
2023-01-18T07:48:44.000Z,26.3
2023-01-18T07:50:01.000Z,32.4
2023-01-18T07:51:17.000Z,22.5
2023-01-18T07:52:33.000Z,28.9
2023-01-18T07:53:49.000Z,24.2
2023-01-18T07:55:06.000Z,25.5
2023-01-18T07:56:22.000Z,34
2023-01-18T07:57:38.000Z,25.8
2023-01-18T07:58:54.000Z,29.1
2023-01-18T08:00:10.000Z,25.7
2023-01-18T08:01:27.000Z,22.6
2023-01-18T08:02:43.000Z,29.7
2023-01-18T08:03:58.000Z,29.1
2023-01-18T08:05:14.000Z,33.3
2023-01-18T08:06:31.000Z,19.8
2023-01-18T08:07:47.000Z,30
2023-01-18T08:09:03.000Z,27.4
2023-01-18T08:10:19.000Z,25.7
2023-01-18T08:11:36.000Z,21.1
2023-01-18T08:12:51.000Z,24.2
2023-01-18T08:14:06.000Z,24.2
2023-01-18T08:15:21.000Z,27.7
2023-01-18T08:16:37.000Z,33.2
2023-01-18T08:17:53.000Z,27
2023-01-18T08:19:09.000Z,25.1
2023-01-18T08:20:25.000Z,26.8
2023-01-18T08:21:42.000Z,28.6
2023-01-18T08:22:58.000Z,27.1
2023-01-18T08:24:14.000Z,30.1
2023-01-18T08:25:30.000Z,23.6
2023-01-18T08:26:47.000Z,28.7
2023-01-18T08:28:03.000Z,30.1
2023-01-18T08:29:19.000Z,35.3
2023-01-18T08:30:35.000Z,34.9
2023-01-18T08:31:51.000Z,32.3
2023-01-18T08:33:07.000Z,23.5
2023-01-18T08:34:23.000Z,27.8
2023-01-18T08:35:39.000Z,27.8
2023-01-18T08:36:55.000Z,29.3
2023-01-18T08:38:12.000Z,25.7
2023-01-18T08:39:28.000Z,25.1
2023-01-18T08:40:44.000Z,25.6
2023-01-18T08:41:59.000Z,28.8
2023-01-18T08:43:15.000Z,24.3
2023-01-18T08:44:31.000Z,29.6
2023-01-18T08:45:46.000Z,32.8
2023-01-18T08:47:01.000Z,27.4
2023-01-18T08:48:18.000Z,25.3
2023-01-18T08:49:34.000Z,23.1
2023-01-18T08:50:50.000Z,30.3
2023-01-18T08:52:06.000Z,27.7
2023-01-18T08:53:23.000Z,32.6
2023-01-18T08:54:39.000Z,34.5
2023-01-18T08:55:55.000Z,32.6
2023-01-18T08:57:11.000Z,26.7
2023-01-18T08:58:27.000Z,31.6
2023-01-18T08:59:44.000Z,28
2023-01-18T09:01:00.000Z,26.7
2023-01-18T09:02:16.000Z,23.4
2023-01-18T09:03:31.000Z,37.8
2023-01-18T09:04:48.000Z,25.3
2023-01-18T09:06:04.000Z,28.4
2023-01-18T09:07:20.000Z,26
2023-01-18T09:08:36.000Z,27.9
2023-01-18T09:09:53.000Z,29.7
2023-01-18T09:11:09.000Z,29.9
2023-01-18T09:12:24.000Z,28
2023-01-18T09:13:39.000Z,33.6
2023-01-18T09:14:56.000Z,30.2
2023-01-18T09:16:11.000Z,22.5
2023-01-18T09:17:26.000Z,29.3
2023-01-18T09:18:42.000Z,37.3
2023-01-18T09:19:59.000Z,31.1
2023-01-18T09:21:15.000Z,26.8
2023-01-18T09:22:31.000Z,30.6
2023-01-18T09:23:47.000Z,35.3
2023-01-18T09:25:04.000Z,31.5
2023-01-18T09:26:20.000Z,29.8
2023-01-18T09:27:36.000Z,27.3
2023-01-18T09:28:52.000Z,38.1
2023-01-18T09:30:08.000Z,30.3
2023-01-18T09:31:25.000Z,37.7
2023-01-18T09:32:41.000Z,35.5
2023-01-18T09:33:56.000Z,29.6
2023-01-18T09:35:12.000Z,31.2
2023-01-18T09:36:29.000Z,33.3
2023-01-18T09:37:45.000Z,30.4
2023-01-18T09:39:01.000Z,27.2
2023-01-18T09:40:17.000Z,35.3
2023-01-18T09:41:34.000Z,31
2023-01-18T09:42:49.000Z,32.4
2023-01-18T09:44:04.000Z,25.8
2023-01-18T09:45:20.000Z,26.8
2023-01-18T09:46:36.000Z,29.3
2023-01-18T09:47:51.000Z,30.9
2023-01-18T09:49:07.000Z,32.8
2023-01-18T09:50:23.000Z,30
2023-01-18T09:51:40.000Z,30.5
2023-01-18T09:52:56.000Z,26
2023-01-18T09:54:12.000Z,39.9
2023-01-18T09:55:28.000Z,24.6
2023-01-18T09:56:44.000Z,33.2
2023-01-18T09:58:01.000Z,32.4
2023-01-18T09:59:17.000Z,33.2
2023-01-18T10:00:33.000Z,34.6
2023-01-18T10:01:49.000Z,29.9
2023-01-18T10:03:06.000Z,28.4
2023-01-18T10:04:21.000Z,28.6
2023-01-18T10:05:37.000Z,38.1
2023-01-18T10:06:53.000Z,37.6
2023-01-18T10:08:10.000Z,38.2
2023-01-18T10:09:26.000Z,36
2023-01-18T10:10:42.000Z,36
2023-01-18T10:11:58.000Z,34.2
2023-01-18T10:13:14.000Z,30
2023-01-18T10:14:29.000Z,30.6
2023-01-18T10:15:45.000Z,34
2023-01-18T10:17:01.000Z,28.3
2023-01-18T10:18:17.000Z,25.1
2023-01-18T10:19:32.000Z,23.2
2023-01-18T10:20:48.000Z,29.1
2023-01-18T10:22:04.000Z,31
2023-01-18T10:23:21.000Z,27.4
2023-01-18T10:24:37.000Z,35.4
2023-01-18T10:25:53.000Z,26.2
2023-01-18T10:27:09.000Z,30.3
2023-01-18T10:28:25.000Z,36.5
2023-01-18T10:29:42.000Z,28.4
2023-01-18T10:30:58.000Z,39.1
2023-01-18T10:32:14.000Z,31.5
2023-01-18T10:33:30.000Z,32.5
2023-01-18T10:34:47.000Z,37.1
2023-01-18T10:36:02.000Z,37.5
2023-01-18T10:37:18.000Z,31.6
2023-01-18T10:38:34.000Z,28.6
2023-01-18T10:39:51.000Z,31.6
2023-01-18T10:41:07.000Z,32.9
2023-01-18T10:42:23.000Z,32.9
2023-01-18T10:43:39.000Z,41
2023-01-18T10:44:56.000Z,34.4
2023-01-18T10:46:12.000Z,34.6
2023-01-18T10:47:27.000Z,32
2023-01-18T10:48:42.000Z,36.6
2023-01-18T10:49:58.000Z,33.2
2023-01-18T10:51:13.000Z,31.8
2023-01-18T10:52:29.000Z,28.4
2023-01-18T10:53:45.000Z,37.3
2023-01-18T10:55:02.000Z,32.8
2023-01-18T10:56:18.000Z,32
2023-01-18T10:57:34.000Z,28.6
2023-01-18T10:58:50.000Z,34.1
2023-01-18T11:00:06.000Z,34.6
2023-01-18T11:01:23.000Z,40.5
2023-01-18T11:02:39.000Z,27.3
2023-01-18T11:03:55.000Z,29.4
2023-01-18T11:05:11.000Z,35.1
2023-01-18T11:06:28.000Z,30
2023-01-18T11:07:43.000Z,28.6
2023-01-18T11:08:59.000Z,28.9
2023-01-18T11:10:15.000Z,43.6
2023-01-18T11:11:32.000Z,34.7
2023-01-18T11:12:48.000Z,38.6
2023-01-18T11:14:04.000Z,35.7
2023-01-18T11:15:20.000Z,28.4
2023-01-18T11:16:37.000Z,34.6
2023-01-18T11:17:53.000Z,34.3
2023-01-18T11:19:09.000Z,42.4
2023-01-18T11:20:25.000Z,37.1
2023-01-18T11:21:41.000Z,33.6
2023-01-18T11:22:58.000Z,30.3
2023-01-18T11:24:13.000Z,31.3
2023-01-18T11:25:29.000Z,30.6
2023-01-18T11:26:45.000Z,29.6
2023-01-18T11:28:02.000Z,39.9
2023-01-18T11:29:18.000Z,33
2023-01-18T11:30:34.000Z,32.8
2023-01-18T11:31:50.000Z,32.4
2023-01-18T11:33:07.000Z,34.8
2023-01-18T11:34:23.000Z,41
2023-01-18T11:35:38.000Z,28.4
2023-01-18T11:36:53.000Z,27.7
2023-01-18T11:38:09.000Z,27.1
2023-01-18T11:39:24.000Z,37.5
2023-01-18T11:40:40.000Z,32.1
2023-01-18T11:41:56.000Z,33
2023-01-18T11:43:13.000Z,27.7
2023-01-18T11:44:29.000Z,38.6
2023-01-18T11:45:45.000Z,28.9
2023-01-18T11:47:01.000Z,24.5
2023-01-18T11:48:17.000Z,35
2023-01-18T11:49:34.000Z,34.1
2023-01-18T11:50:50.000Z,25.6
2023-01-18T11:52:06.000Z,26
2023-01-18T11:53:22.000Z,29.6
2023-01-18T11:54:39.000Z,31.2
2023-01-18T11:55:54.000Z,32.3
2023-01-18T11:57:10.000Z,31.6
2023-01-18T11:58:26.000Z,29.1
2023-01-18T11:59:43.000Z,30.8
2023-01-18T12:00:59.000Z,34.7
2023-01-18T12:02:15.000Z,26.1
2023-01-18T12:03:31.000Z,37.4
2023-01-18T12:04:47.000Z,29
2023-01-18T12:07:18.000Z,29.7
2023-01-18T12:08:33.000Z,33.9
2023-01-18T12:09:49.000Z,25.4
2023-01-18T12:11:05.000Z,27
2023-01-18T12:12:21.000Z,29.1
2023-01-18T12:13:37.000Z,25.4
2023-01-18T12:14:54.000Z,28.3
2023-01-18T12:16:10.000Z,38.2
2023-01-18T12:17:26.000Z,23.7
2023-01-18T12:18:42.000Z,26.3
2023-01-18T12:19:58.000Z,32.5
2023-01-18T12:21:15.000Z,34.8
2023-01-18T12:22:31.000Z,24.6
2023-01-18T12:23:47.000Z,29.7
2023-01-18T12:25:03.000Z,25.1
2023-01-18T12:26:19.000Z,28.4
2023-01-18T12:27:35.000Z,25.1
2023-01-18T12:28:51.000Z,35.7
2023-01-18T12:30:07.000Z,23.6
2023-01-18T12:31:24.000Z,24.4
2023-01-18T12:32:40.000Z,23
2023-01-18T12:33:56.000Z,26.2
2023-01-18T12:35:11.000Z,22.4
2023-01-18T12:36:27.000Z,22.2
2023-01-18T12:37:43.000Z,27.1
2023-01-18T12:38:58.000Z,27.3
2023-01-18T12:40:13.000Z,26.2
2023-01-18T12:41:30.000Z,26.8
2023-01-18T12:42:46.000Z,29.1
2023-01-18T12:44:02.000Z,22
2023-01-18T12:45:18.000Z,23.7
2023-01-18T12:46:34.000Z,30.1
2023-01-18T12:47:51.000Z,22.1
2023-01-18T12:49:07.000Z,18.7
2023-01-18T12:50:23.000Z,22.6
2023-01-18T12:51:39.000Z,22.9
2023-01-18T12:52:56.000Z,24.7
2023-01-18T12:54:12.000Z,22.7
2023-01-18T12:55:28.000Z,25.4
2023-01-18T12:56:43.000Z,23.1
2023-01-18T12:58:00.000Z,19.3
2023-01-18T12:59:16.000Z,20.7
2023-01-18T13:00:32.000Z,24.3
2023-01-18T13:01:48.000Z,20.6
2023-01-18T13:03:05.000Z,23.1
2023-01-18T13:04:21.000Z,21
2023-01-18T13:05:36.000Z,23.9
2023-01-18T13:06:51.000Z,18.5
2023-01-18T13:08:08.000Z,23.6
2023-01-18T13:09:24.000Z,24
2023-01-18T13:10:40.000Z,23.4
2023-01-18T13:11:55.000Z,24.6
2023-01-18T13:13:11.000Z,23.4
2023-01-18T13:14:27.000Z,22.6
2023-01-18T13:15:43.000Z,17.3
2023-01-18T13:16:59.000Z,28.4
2023-01-18T13:18:15.000Z,29
2023-01-18T13:19:32.000Z,23.2
2023-01-18T13:20:48.000Z,21.1
2023-01-18T13:22:04.000Z,20.9
2023-01-18T13:23:20.000Z,19.7
2023-01-18T13:24:37.000Z,17.1
2023-01-18T13:25:53.000Z,24.2
2023-01-18T13:27:09.000Z,21.5
2023-01-18T13:28:25.000Z,19.4
2023-01-18T13:29:41.000Z,20.4
2023-01-18T13:30:57.000Z,17.9
2023-01-18T13:32:13.000Z,16.1
2023-01-18T13:33:29.000Z,21.3
2023-01-18T13:34:46.000Z,20.3
2023-01-18T13:36:02.000Z,20.7
2023-01-18T13:37:18.000Z,23.1
2023-01-18T13:38:33.000Z,21.1
2023-01-18T13:39:49.000Z,23.6
2023-01-18T13:41:05.000Z,13.8
2023-01-18T13:42:20.000Z,17.8
2023-01-18T13:43:35.000Z,17.7
2023-01-18T13:44:51.000Z,19.1
2023-01-18T13:46:08.000Z,22.8
2023-01-18T13:47:24.000Z,20.6
2023-01-18T13:48:40.000Z,19.5
2023-01-18T13:49:56.000Z,16.7
2023-01-18T13:51:13.000Z,18.1
2023-01-18T13:52:29.000Z,18.9
2023-01-18T13:53:45.000Z,20
2023-01-18T13:55:01.000Z,15.5
2023-01-18T13:56:18.000Z,18.9
2023-01-18T13:57:34.000Z,14
2023-01-18T13:58:50.000Z,16.3
2023-01-18T14:00:05.000Z,11.7
2023-01-18T14:01:22.000Z,11.2
2023-01-18T14:02:38.000Z,13.7
2023-01-18T14:03:54.000Z,15.3
2023-01-18T14:05:10.000Z,22.5
2023-01-18T14:06:26.000Z,13.7
2023-01-18T14:07:43.000Z,15.2
2023-01-18T14:08:59.000Z,18.2
2023-01-18T14:10:15.000Z,17.4
2023-01-18T14:11:31.000Z,10.9
2023-01-18T14:12:48.000Z,13.7
2023-01-18T14:14:04.000Z,14.3
2023-01-18T14:15:20.000Z,13
2023-01-18T14:16:35.000Z,15.4
2023-01-18T14:17:52.000Z,20.1
2023-01-18T14:19:08.000Z,15.7
2023-01-18T14:20:24.000Z,13.9
2023-01-18T14:21:40.000Z,14.3
2023-01-18T14:22:57.000Z,18.2
2023-01-18T14:24:13.000Z,11.5
2023-01-18T14:25:29.000Z,14.6
2023-01-18T14:26:45.000Z,17.3
2023-01-18T14:28:01.000Z,13.6
2023-01-18T14:29:18.000Z,8.5
2023-01-18T14:30:34.000Z,8
2023-01-18T14:31:50.000Z,10.7
2023-01-18T14:33:05.000Z,11
2023-01-18T14:34:22.000Z,14.7
2023-01-18T14:35:38.000Z,12
2023-01-18T14:36:54.000Z,10.6
2023-01-18T14:38:10.000Z,15.4
2023-01-18T14:39:27.000Z,13.5
2023-01-18T14:40:43.000Z,11.3
2023-01-18T14:41:59.000Z,15.2
2023-01-18T14:43:15.000Z,8.7
2023-01-18T14:44:32.000Z,9.6
2023-01-18T14:45:48.000Z,10.1
2023-01-18T14:47:04.000Z,11.9
2023-01-18T14:48:20.000Z,10.8
2023-01-18T14:49:36.000Z,12
2023-01-18T14:50:51.000Z,12.9
2023-01-18T14:52:07.000Z,13.3
2023-01-18T14:53:23.000Z,9.7
2023-01-18T14:54:39.000Z,15.1
2023-01-18T14:55:56.000Z,12.5
2023-01-18T14:57:12.000Z,8.5
2023-01-18T14:58:27.000Z,8
2023-01-18T14:59:42.000Z,9.9
2023-01-18T15:00:58.000Z,8.6
2023-01-18T15:02:13.000Z,10.1
2023-01-18T15:03:29.000Z,20.1
2023-01-18T15:04:45.000Z,9.4
2023-01-18T15:06:02.000Z,13.9
2023-01-18T15:07:18.000Z,5.1
2023-01-18T15:08:34.000Z,10
2023-01-18T15:09:50.000Z,10.3
2023-01-18T15:11:07.000Z,6.8
2023-01-18T15:12:23.000Z,9.9
2023-01-18T15:13:39.000Z,12
2023-01-18T15:14:55.000Z,13.8
2023-01-18T15:16:12.000Z,10.9
2023-01-18T15:17:28.000Z,14.3
2023-01-18T15:18:43.000Z,10.4
2023-01-18T15:19:59.000Z,8.2
2023-01-18T15:21:15.000Z,9.5
2023-01-18T15:22:32.000Z,10.7
2023-01-18T15:23:48.000Z,11.5
2023-01-18T15:25:04.000Z,12.3
2023-01-18T15:26:20.000Z,21.3
2023-01-18T15:27:37.000Z,9.5
2023-01-18T15:28:53.000Z,11
2023-01-18T15:30:09.000Z,14
2023-01-18T15:31:25.000Z,10.2
2023-01-18T15:32:42.000Z,12.7
2023-01-18T15:33:58.000Z,12.4
2023-01-18T15:35:13.000Z,12.7
2023-01-18T15:36:28.000Z,10.5
2023-01-18T15:37:44.000Z,8
2023-01-18T15:38:59.000Z,6.8
2023-01-18T15:40:14.000Z,12.1
2023-01-18T15:41:30.000Z,9.3
2023-01-18T15:42:47.000Z,8.3
2023-01-18T15:44:03.000Z,11.6
2023-01-18T15:45:19.000Z,10.6
2023-01-18T15:46:35.000Z,10.9
2023-01-18T15:47:52.000Z,13
2023-01-18T15:49:08.000Z,7.6
2023-01-18T15:50:24.000Z,8.9
2023-01-18T15:51:40.000Z,12.6
2023-01-18T15:52:56.000Z,13.9
2023-01-18T15:54:13.000Z,12.2
2023-01-18T15:55:29.000Z,13
2023-01-18T15:56:44.000Z,15.4
2023-01-18T15:58:00.000Z,12.4
2023-01-18T15:59:17.000Z,13.4
2023-01-18T16:00:33.000Z,10.9
2023-01-18T16:01:49.000Z,9.9
2023-01-18T16:03:05.000Z,14.1
2023-01-18T16:04:22.000Z,17.2
2023-01-18T16:05:37.000Z,31.2
2023-01-18T16:06:52.000Z,29.2
2023-01-18T16:08:07.000Z,15.5
2023-01-18T16:09:23.000Z,16.7
2023-01-18T16:10:39.000Z,14.7
2023-01-18T16:11:55.000Z,12.8
2023-01-18T16:13:11.000Z,15.1
2023-01-18T16:14:28.000Z,10.7
2023-01-18T16:15:44.000Z,11.6
2023-01-18T16:17:00.000Z,9
2023-01-18T16:18:16.000Z,11.4
2023-01-18T16:19:32.000Z,15.2
2023-01-18T16:20:49.000Z,16.7
2023-01-18T16:22:05.000Z,16.4
2023-01-18T16:23:21.000Z,9.4
2023-01-18T16:24:37.000Z,11.9
2023-01-18T16:25:53.000Z,9.9
2023-01-18T16:27:09.000Z,16.3
2023-01-18T16:28:25.000Z,17.4
2023-01-18T16:29:41.000Z,22.8
2023-01-18T16:30:58.000Z,13.7
2023-01-18T16:32:14.000Z,17.6
2023-01-18T16:33:30.000Z,13.2
2023-01-18T16:34:45.000Z,14.4
2023-01-18T16:36:01.000Z,14.8
2023-01-18T16:37:17.000Z,15
2023-01-18T16:38:32.000Z,17.7
2023-01-18T16:39:47.000Z,9.7
2023-01-18T16:41:04.000Z,14.2
2023-01-18T16:42:20.000Z,7.9
2023-01-18T16:43:36.000Z,18.5
2023-01-18T16:44:52.000Z,15.2
2023-01-18T16:46:09.000Z,14.2
2023-01-18T16:47:25.000Z,11.9
2023-01-18T16:48:41.000Z,14.3
2023-01-18T16:49:57.000Z,17.8
2023-01-18T16:51:13.000Z,12.5
2023-01-18T16:52:30.000Z,21.1
2023-01-18T16:53:46.000Z,22.7
2023-01-18T16:55:02.000Z,16.5
2023-01-18T16:56:17.000Z,14.9
2023-01-18T16:57:34.000Z,14.1
2023-01-18T16:58:50.000Z,9.5
2023-01-18T17:00:06.000Z,14.7
2023-01-18T17:01:22.000Z,15.7
2023-01-18T17:02:39.000Z,15.2
2023-01-18T17:03:55.000Z,10.1